createdAt,value
2022-11-21T00:14:11.000Z,7.52
2022-11-21T00:18:43.250Z,7.51
2022-11-21T00:26:05.927Z,5.72
2022-11-21T00:29:51.696Z,7.60
2022-11-21T00:45:58.729Z,7.58
2022-11-21T00:52:28.839Z,7.40
2022-11-21T00:59:29.345Z,4.42
2022-11-21T05:09:46.797Z,6.27
2022-11-21T05:12:38.162Z,6.91
2022-11-21T05:15:10.367Z,6.14
2022-11-21T05:17:39.308Z,6.69
2022-11-21T06:07:57.424Z,7.66
2022-11-21T06:10:53.040Z,5.06
2022-11-21T06:13:43.727Z,6.20
2022-11-21T06:16:37.843Z,7.68
2022-11-21T06:19:20.792Z,7.71
2022-11-21T06:22:31.563Z,7.71
2022-11-21T06:25:24.047Z,7.69
2022-11-21T06:28:19.302Z,7.64
2022-11-21T06:31:08.336Z,7.71
2022-11-21T06:33:57.321Z,5.99
2022-11-21T06:41:26.751Z,7.73
2022-11-21T06:44:37.822Z,7.74
2022-11-21T06:47:08.383Z,7.72
2022-11-21T06:49:52.133Z,7.78
2022-11-21T06:53:04.138Z,7.79
2022-11-21T07:11:50.519Z,5.19
2022-11-21T07:14:19.038Z,6.57
2022-11-21T07:21:15.449Z,7.84
2022-11-21T08:15:40.068Z,6.50
2022-11-21T08:27:53.379Z,5.80
2022-11-21T09:22:54.777Z,7.34
2022-11-21T09:50:31.676Z,11.65
2022-11-21T09:53:04.734Z,12.37
2022-11-21T09:55:40.937Z,12.50
2022-11-21T09:58:17.469Z,12.07
2022-11-21T10:00:45.388Z,11.46
2022-11-21T10:03:17.974Z,11.97
2022-11-21T10:05:55.676Z,12.10
2022-11-21T10:08:31.646Z,12.69
2022-11-21T10:11:15.230Z,14.14
2022-11-21T10:13:58.423Z,17.24
2022-11-21T10:16:41.847Z,18.21
2022-11-21T10:19:42.889Z,21.22
2022-11-21T10:22:49.142Z,22.26
2022-11-21T10:25:26.946Z,21.90
2022-11-21T10:27:59.654Z,21.06
2022-11-21T10:30:27.490Z,20.43
2022-11-21T10:32:58.090Z,21.72
2022-11-21T10:35:30.150Z,21.62
2022-11-21T10:38:02.755Z,20.36
2022-11-21T10:40:38.335Z,18.54
2022-11-21T10:43:25.434Z,16.82
2022-11-21T10:45:54.282Z,16.16
2022-11-21T10:48:22.161Z,14.87
2022-11-21T10:51:11.639Z,14.99
2022-11-21T10:53:55.382Z,14.61
2022-11-21T10:56:26.313Z,13.99
2022-11-21T10:58:56.475Z,13.35
2022-11-21T11:01:27.810Z,13.32
2022-11-21T11:07:22.880Z,13.96
2022-11-21T11:09:53.389Z,14.59
2022-11-21T11:12:25.216Z,13.60
2022-11-21T11:14:55.723Z,13.90
2022-11-21T11:17:32.386Z,13.73
2022-11-21T11:20:02.844Z,13.46
2022-11-21T11:22:32.102Z,13.21
2022-11-21T11:25:05.373Z,13.45
2022-11-21T11:27:33.232Z,13.73
2022-11-21T11:30:07.579Z,13.71
2022-11-21T11:32:40.696Z,13.55
2022-11-21T11:35:22.637Z,13.40
2022-11-21T11:38:00.143Z,13.09
2022-11-21T11:40:33.788Z,13.09
2022-11-21T11:43:44.598Z,13.27
2022-11-21T11:46:53.047Z,13.39
2022-11-21T11:49:31.266Z,12.82
2022-11-21T11:52:04.872Z,12.97
2022-11-21T11:54:41.804Z,12.97
2022-11-21T11:57:11.542Z,12.89
2022-11-21T11:59:45.391Z,12.98
2022-11-21T12:02:22.098Z,13.02
2022-11-21T12:05:10.262Z,12.74
2022-11-21T12:10:59.892Z,12.17
2022-11-21T12:13:30.925Z,12.05
2022-11-21T12:16:11.957Z,12.38
2022-11-21T12:18:53.902Z,10.84
2022-11-21T12:21:23.333Z,12.47
2022-11-21T12:23:54.947Z,12.81
2022-11-21T12:26:41.418Z,12.29
2022-11-21T12:29:22.425Z,12.63
2022-11-21T12:32:10.347Z,11.68
2022-11-21T12:34:57.079Z,11.35
2022-11-21T12:37:34.099Z,11.10
2022-11-21T12:40:13.395Z,11.05
2022-11-21T12:42:50.242Z,11.35
2022-11-21T12:45:32.844Z,10.58
2022-11-21T12:48:37.949Z,10.55
2022-11-21T13:43:33.739Z,9.89
2022-11-21T13:46:03.211Z,9.53
2022-11-21T13:49:06.308Z,7.10
2022-11-21T13:51:49.510Z,7.70
2022-11-21T13:54:55.316Z,9.53
2022-11-21T13:57:41.741Z,9.58
2022-11-21T14:00:42.861Z,9.61
2022-11-21T14:03:44.339Z,9.25
2022-11-21T14:06:32.795Z,9.67
2022-11-21T14:09:23.461Z,9.54
2022-11-21T14:11:54.278Z,9.48
2022-11-21T14:14:36.530Z,9.47
2022-11-21T14:17:19.338Z,9.41
2022-11-21T14:19:47.816Z,9.12
2022-11-21T14:22:27.218Z,9.32
2022-11-21T14:24:59.954Z,8.72
2022-11-21T14:27:31.152Z,9.19
2022-11-21T14:29:59.825Z,9.21
2022-11-21T14:32:29.903Z,9.14
2022-11-21T14:35:12.270Z,9.06
2022-11-21T14:37:42.659Z,9.02
2022-11-21T14:43:33.386Z,8.86
2022-11-21T14:46:01.195Z,8.67
2022-11-21T14:48:31.606Z,8.70
2022-11-21T14:51:01.784Z,8.59
2022-11-21T14:53:29.844Z,8.27
2022-11-21T14:56:01.449Z,8.29
2022-11-21T14:58:29.795Z,8.29
2022-11-21T15:01:05.358Z,8.12
2022-11-21T15:03:34.853Z,8.06
2022-11-21T15:06:07.352Z,7.95
2022-11-21T15:09:18.306Z,7.85
2022-11-21T15:11:29.502Z,7.54
2022-11-21T15:14:17.738Z,7.63
2022-11-21T15:16:48.140Z,7.47
2022-11-21T15:19:22.407Z,7.44
2022-11-21T15:21:51.339Z,7.32
2022-11-21T15:24:29.270Z,7.33
2022-11-21T15:26:57.047Z,7.38
2022-11-21T15:29:25.097Z,7.13
2022-11-21T15:32:07.308Z,7.27
2022-11-21T15:34:37.021Z,7.20
2022-11-21T15:37:08.415Z,6.90
2022-11-21T15:39:37.792Z,6.92
2022-11-21T15:42:45.363Z,7.01
2022-11-21T15:45:26.708Z,6.60
2022-11-21T15:47:55.467Z,6.92
2022-11-21T15:50:26.255Z,6.88
2022-11-21T15:52:54.697Z,6.84
2022-11-21T15:55:25.978Z,6.82
2022-11-21T15:57:53.854Z,6.81
2022-11-21T16:00:21.750Z,6.80
2022-11-21T16:02:49.548Z,6.71
2022-11-21T16:05:17.367Z,6.72
2022-11-21T16:07:48.462Z,6.79
2022-11-21T16:10:24.312Z,6.46
2022-11-21T16:12:55.194Z,6.71
2022-11-21T16:15:23.343Z,6.19
2022-11-21T16:17:52.170Z,6.82
2022-11-21T16:20:19.937Z,6.84
2022-11-21T16:45:56.021Z,6.56
2022-11-21T16:49:34.877Z,6.58
2022-11-21T17:05:43.947Z,6.54
2022-11-21T17:08:27.608Z,6.37
2022-11-21T17:34:08.378Z,6.57
2022-11-21T17:37:15.422Z,6.66
2022-11-21T18:10:20.444Z,6.52
2022-11-21T18:42:50.936Z,6.69
2022-11-21T19:17:44.876Z,6.84
2022-11-21T20:02:42.864Z,6.88
2022-11-21T20:05:20.688Z,5.03
2022-11-21T20:08:03.624Z,6.07
2022-11-21T20:10:38.513Z,6.97
2022-11-21T20:13:06.512Z,6.97
2022-11-21T20:15:38.745Z,6.90
2022-11-21T20:18:08.464Z,6.89
2022-11-21T20:20:36.690Z,7.08
2022-11-21T20:49:31.512Z,7.17
2022-11-21T20:58:57.854Z,7.16
2022-11-21T21:01:26.255Z,7.14
2022-11-21T21:03:54.055Z,7.15
2022-11-21T21:06:23.941Z,6.96
2022-11-21T21:08:53.420Z,7.11
2022-11-21T21:11:51.440Z,7.13
2022-11-21T21:14:10.334Z,6.81
2022-11-21T21:16:38.155Z,7.12
2022-11-21T21:19:05.927Z,6.99
2022-11-21T21:21:33.650Z,7.12
2022-11-21T21:24:06.640Z,7.11
2022-11-21T21:26:41.806Z,6.97
2022-11-21T21:29:11.550Z,6.93
2022-11-21T21:31:40.244Z,7.11
2022-11-21T21:34:10.869Z,7.08
2022-11-21T21:36:38.644Z,7.08
2022-11-21T21:39:07.709Z,6.88
2022-11-21T21:41:35.733Z,6.89
2022-11-21T21:44:03.431Z,6.98
2022-11-21T21:46:31.147Z,6.90
2022-11-21T21:48:59.455Z,7.07
2022-11-21T21:51:28.418Z,7.07
2022-11-21T21:53:57.770Z,6.99
2022-11-21T21:56:28.493Z,7.06
2022-11-21T21:58:57.741Z,6.79
2022-11-21T22:44:49.143Z,6.86
